首页
METAR-TAF:

METAR-TAF

机场 :

亚特兰大, 喬治亞, 美国

哈茨菲尔德-杰克逊亚特兰大国际机场

纬度: 33-38-25N, 经度: 084-25-37W, 海拔: 313米

当前天气观测

该预报发布于52分钟前的22:52 UTC
风速8节,风向西
温度 3°C
湿度 38%
气压 1027 hPa
能見度: 16.1公里
天空无云

METAR: KATL 182252Z 28008KT 10SM CLR 03/M10 A3034 RMK AO2 SLP286 T00281100

时间: 18:44 (23:44 UTC)

预报

该预报发布于8分钟前的23:36 UTC
预报有效从19日的 00点(UTC)到 20日的 06点(UTC)
风速8节,风向西转西北
能見度: 10公里
天空无云

TAF: KATL 182336Z 1900/2006 30008KT P6SM SKC

超过4000个机场的气象观测和天气预报(METAR&TAF报告)。

可查询的气象台以黄色和红色小点在地图上表示。

将鼠标移到小点上方,可查看气象台名称。

然后点击查看天气观测和预报。

如需切换地图:点击带黑十字的绿色按钮放大地图;点击带横线的绿色按钮缩小地图;或者点击绿色箭头查看邻近地区的地图。


METAR-TAF: